sensor_id;sensor_type;location;lat;lon;timestamp;temperature;humidity
23251;DHT22;11794;49.730;10.088;2023-08-06T00:01:38;14.40;99.90
23251;DHT22;11794;49.730;10.088;2023-08-06T00:04:04;14.40;99.90
23251;DHT22;11794;49.730;10.088;2023-08-06T00:06:29;14.40;99.90
23251;DHT22;11794;49.730;10.088;2023-08-06T00:08:55;14.40;99.90
23251;DHT22;11794;49.730;10.088;2023-08-06T00:11:20;14.40;99.90
23251;DHT22;11794;49.730;10.088;2023-08-06T00:13:46;14.30;99.90
23251;DHT22;11794;49.730;10.088;2023-08-06T00:16:12;14.20;99.90
23251;DHT22;11794;49.730;10.088;2023-08-06T00:18:38;14.30;99.90
23251;DHT22;11794;49.730;10.088;2023-08-06T00:21:04;14.20;99.90
23251;DHT22;11794;49.730;10.088;2023-08-06T00:23:30;14.20;99.90
23251;DHT22;11794;49.730;10.088;2023-08-06T00:25:55;14.20;99.90
23251;DHT22;11794;49.730;10.088;2023-08-06T00:28:21;14.20;99.90
23251;DHT22;11794;49.730;10.088;2023-08-06T00:30:51;14.20;99.90
23251;DHT22;11794;49.730;10.088;2023-08-06T00:33:17;14.20;99.90
23251;DHT22;11794;49.730;10.088;2023-08-06T00:35:42;14.30;99.90
23251;DHT22;11794;49.730;10.088;2023-08-06T00:38:08;14.20;99.90
23251;DHT22;11794;49.730;10.088;2023-08-06T00:40:33;14.20;99.90
23251;DHT22;11794;49.730;10.088;2023-08-06T00:42:59;14.30;99.90
23251;DHT22;11794;49.730;10.088;2023-08-06T00:45:25;14.20;99.90
23251;DHT22;11794;49.730;10.088;2023-08-06T00:47:51;14.20;99.90
23251;DHT22;11794;49.730;10.088;2023-08-06T00:50:17;14.20;99.90
23251;DHT22;11794;49.730;10.088;2023-08-06T00:52:43;14.20;99.90
23251;DHT22;11794;49.730;10.088;2023-08-06T00:55:08;14.30;99.90
23251;DHT22;11794;49.730;10.088;2023-08-06T00:57:35;14.20;99.90
23251;DHT22;11794;49.730;10.088;2023-08-06T01:00:01;14.20;99.90
23251;DHT22;11794;49.730;10.088;2023-08-06T01:02:26;14.10;99.90
23251;DHT22;11794;49.730;10.088;2023-08-06T01:04:52;14.20;99.90
23251;DHT22;11794;49.730;10.088;2023-08-06T01:16:12;14.20;99.90
23251;DHT22;11794;49.730;10.088;2023-08-06T01:18:40;14.20;99.90
23251;DHT22;11794;49.730;10.088;2023-08-06T01:21:07;14.20;99.90
23251;DHT22;11794;49.730;10.088;2023-08-06T01:23:32;14.20;99.90
23251;DHT22;11794;49.730;10.088;2023-08-06T01:29:15;14.10;99.90
23251;DHT22;11794;49.730;10.088;2023-08-06T01:31:44;14.10;99.90
23251;DHT22;11794;49.730;10.088;2023-08-06T01:34:23;14.30;99.90
23251;DHT22;11794;49.730;10.088;2023-08-06T01:36:50;14.20;99.90
23251;DHT22;11794;49.730;10.088;2023-08-06T01:39:16;14.30;99.90
23251;DHT22;11794;49.730;10.088;2023-08-06T01:41:42;14.30;99.90
23251;DHT22;11794;49.730;10.088;2023-08-06T01:44:07;14.30;99.90
23251;DHT22;11794;49.730;10.088;2023-08-06T01:46:33;14.10;99.90
23251;DHT22;11794;49.730;10.088;2023-08-06T01:48:58;14.10;99.90
23251;DHT22;11794;49.730;10.088;2023-08-06T01:51:24;14.10;99.90
23251;DHT22;11794;49.730;10.088;2023-08-06T01:53:50;14.10;99.90
23251;DHT22;11794;49.730;10.088;2023-08-06T01:56:15;14.10;99.90
23251;DHT22;11794;49.730;10.088;2023-08-06T01:58:40;14.10;99.90
23251;DHT22;11794;49.730;10.088;2023-08-06T02:01:06;14.00;99.90
23251;DHT22;11794;49.730;10.088;2023-08-06T02:03:31;13.90;99.90
23251;DHT22;11794;49.730;10.088;2023-08-06T02:05:57;13.90;99.90
23251;DHT22;11794;49.730;10.088;2023-08-06T02:08:22;13.90;99.90
23251;DHT22;11794;49.730;10.088;2023-08-06T02:10:48;13.90;99.90
23251;DHT22;11794;49.730;10.088;2023-08-06T02:13:14;13.90;99.90
23251;DHT22;11794;49.730;10.088;2023-08-06T02:15:46;13.90;99.90
23251;DHT22;11794;49.730;10.088;2023-08-06T02:18:15;13.90;99.90
23251;DHT22;11794;49.730;10.088;2023-08-06T02:20:42;13.90;99.90
23251;DHT22;11794;49.730;10.088;2023-08-06T02:23:07;14.00;99.90
23251;DHT22;11794;49.730;10.088;2023-08-06T02:25:33;13.90;99.90
23251;DHT22;11794;49.730;10.088;2023-08-06T02:27:58;13.80;99.90
23251;DHT22;11794;49.730;10.088;2023-08-06T02:30:24;13.90;99.90
23251;DHT22;11794;49.730;10.088;2023-08-06T02:32:50;13.70;99.90
23251;DHT22;11794;49.730;10.088;2023-08-06T02:35:15;13.70;99.90
23251;DHT22;11794;49.730;10.088;2023-08-06T02:37:41;13.60;99.90
23251;DHT22;11794;49.730;10.088;2023-08-06T02:40:07;13.60;99.90
23251;DHT22;11794;49.730;10.088;2023-08-06T02:42:32;13.50;99.90
23251;DHT22;11794;49.730;10.088;2023-08-06T02:44:58;13.50;99.90
23251;DHT22;11794;49.730;10.088;2023-08-06T02:47:23;13.50;99.90
23251;DHT22;11794;49.730;10.088;2023-08-06T02:49:49;13.50;99.90
23251;DHT22;11794;49.730;10.088;2023-08-06T02:52:14;13.50;99.90
23251;DHT22;11794;49.730;10.088;2023-08-06T02:54:40;13.50;99.90
23251;DHT22;11794;49.730;10.088;2023-08-06T02:57:06;13.40;99.90
23251;DHT22;11794;49.730;10.088;2023-08-06T02:59:32;13.40;99.90
23251;DHT22;11794;49.730;10.088;2023-08-06T03:01:57;13.50;99.90
23251;DHT22;11794;49.730;10.088;2023-08-06T03:04:23;13.40;99.90
23251;DHT22;11794;49.730;10.088;2023-08-06T03:06:49;13.40;99.90
23251;DHT22;11794;49.730;10.088;2023-08-06T03:09:16;13.40;99.90
23251;DHT22;11794;49.730;10.088;2023-08-06T03:11:41;13.40;99.90
23251;DHT22;11794;49.730;10.088;2023-08-06T03:14:07;13.50;99.90
23251;DHT22;11794;49.730;10.088;2023-08-06T03:16:32;13.40;99.90
23251;DHT22;11794;49.730;10.088;2023-08-06T03:18:58;13.40;99.90
23251;DHT22;11794;49.730;10.088;2023-08-06T03:21:24;13.40;99.90
23251;DHT22;11794;49.730;10.088;2023-08-06T03:23:49;13.40;99.90
23251;DHT22;11794;49.730;10.088;2023-08-06T03:26:15;13.50;99.90
23251;DHT22;11794;49.730;10.088;2023-08-06T03:28:40;13.50;99.90
23251;DHT22;11794;49.730;10.088;2023-08-06T03:31:06;13.50;99.90
23251;DHT22;11794;49.730;10.088;2023-08-06T03:33:31;13.50;99.90
23251;DHT22;11794;49.730;10.088;2023-08-06T03:35:57;13.50;99.90
23251;DHT22;11794;49.730;10.088;2023-08-06T03:38:23;13.50;99.90
23251;DHT22;11794;49.730;10.088;2023-08-06T03:40:49;13.50;99.90
23251;DHT22;11794;49.730;10.088;2023-08-06T03:43:15;13.50;99.90
23251;DHT22;11794;49.730;10.088;2023-08-06T03:45:41;13.50;99.90
23251;DHT22;11794;49.730;10.088;2023-08-06T03:48:07;13.60;99.90
23251;DHT22;11794;49.730;10.088;2023-08-06T03:50:33;13.60;99.90
23251;DHT22;11794;49.730;10.088;2023-08-06T03:52:58;13.50;99.90
23251;DHT22;11794;49.730;10.088;2023-08-06T03:55:24;13.50;99.90
23251;DHT22;11794;49.730;10.088;2023-08-06T03:57:49;13.40;99.90
23251;DHT22;11794;49.730;10.088;2023-08-06T04:00:15;13.40;99.90
23251;DHT22;11794;49.730;10.088;2023-08-06T04:02:41;13.50;99.90
23251;DHT22;11794;49.730;10.088;2023-08-06T04:05:07;13.40;99.90
23251;DHT22;11794;49.730;10.088;2023-08-06T04:07:32;13.40;99.90
23251;DHT22;11794;49.730;10.088;2023-08-06T04:10:00;13.50;99.90
23251;DHT22;11794;49.730;10.088;2023-08-06T04:12:26;13.60;99.90
23251;DHT22;11794;49.730;10.088;2023-08-06T04:14:51;13.50;99.90
23251;DHT22;11794;49.730;10.088;2023-08-06T04:17:18;13.60;99.90
23251;DHT22;11794;49.730;10.088;2023-08-06T04:19:46;13.60;99.90
23251;DHT22;11794;49.730;10.088;2023-08-06T04:22:13;13.50;99.90
23251;DHT22;11794;49.730;10.088;2023-08-06T04:24:38;13.60;99.90
23251;DHT22;11794;49.730;10.088;2023-08-06T04:27:04;13.70;99.90
23251;DHT22;11794;49.730;10.088;2023-08-06T04:29:29;13.70;99.90
23251;DHT22;11794;49.730;10.088;2023-08-06T04:31:55;13.60;99.90
23251;DHT22;11794;49.730;10.088;2023-08-06T04:34:20;13.60;99.90
23251;DHT22;11794;49.730;10.088;2023-08-06T04:36:46;13.70;99.90
23251;DHT22;11794;49.730;10.088;2023-08-06T04:39:11;13.70;99.90
23251;DHT22;11794;49.730;10.088;2023-08-06T04:41:37;13.70;99.90
23251;DHT22;11794;49.730;10.088;2023-08-06T04:44:02;13.70;99.90
23251;DHT22;11794;49.730;10.088;2023-08-06T04:46:29;13.60;99.90
23251;DHT22;11794;49.730;10.088;2023-08-06T04:48:55;13.70;99.90
23251;DHT22;11794;49.730;10.088;2023-08-06T04:51:20;13.70;99.90
23251;DHT22;11794;49.730;10.088;2023-08-06T04:53:46;13.80;99.90
23251;DHT22;11794;49.730;10.088;2023-08-06T04:56:11;13.80;99.90
23251;DHT22;11794;49.730;10.088;2023-08-06T04:58:37;13.90;99.90
23251;DHT22;11794;49.730;10.088;2023-08-06T05:01:02;14.00;99.90
23251;DHT22;11794;49.730;10.088;2023-08-06T05:03:27;14.00;99.90
23251;DHT22;11794;49.730;10.088;2023-08-06T05:05:53;14.10;99.90
23251;DHT22;11794;49.730;10.088;2023-08-06T05:08:18;14.10;99.90
23251;DHT22;11794;49.730;10.088;2023-08-06T05:10:44;14.20;99.90
23251;DHT22;11794;49.730;10.088;2023-08-06T05:13:10;14.30;99.90
23251;DHT22;11794;49.730;10.088;2023-08-06T05:15:36;14.40;99.90
23251;DHT22;11794;49.730;10.088;2023-08-06T05:18:01;14.50;99.90
23251;DHT22;11794;49.730;10.088;2023-08-06T05:20:27;14.60;99.90
23251;DHT22;11794;49.730;10.088;2023-08-06T05:22:52;14.70;99.90
23251;DHT22;11794;49.730;10.088;2023-08-06T05:25:18;14.70;99.90
23251;DHT22;11794;49.730;10.088;2023-08-06T05:27:43;14.80;99.90
23251;DHT22;11794;49.730;10.088;2023-08-06T05:30:09;14.80;99.90
23251;DHT22;11794;49.730;10.088;2023-08-06T05:32:35;14.80;99.90
23251;DHT22;11794;49.730;10.088;2023-08-06T05:35:01;14.80;99.90
23251;DHT22;11794;49.730;10.088;2023-08-06T05:37:26;14.80;99.90
23251;DHT22;11794;49.730;10.088;2023-08-06T05:39:52;14.80;99.90
23251;DHT22;11794;49.730;10.088;2023-08-06T05:42:17;14.70;99.90
23251;DHT22;11794;49.730;10.088;2023-08-06T05:44:43;14.70;99.90
23251;DHT22;11794;49.730;10.088;2023-08-06T05:47:08;14.70;99.90
23251;DHT22;11794;49.730;10.088;2023-08-06T05:49:34;14.70;99.90
23251;DHT22;11794;49.730;10.088;2023-08-06T05:51:59;14.80;99.90
23251;DHT22;11794;49.730;10.088;2023-08-06T05:54:25;14.90;99.90
23251;DHT22;11794;49.730;10.088;2023-08-06T05:56:50;14.90;99.90
23251;DHT22;11794;49.730;10.088;2023-08-06T05:59:16;15.00;99.90
23251;DHT22;11794;49.730;10.088;2023-08-06T06:01:41;15.20;99.90
23251;DHT22;11794;49.730;10.088;2023-08-06T06:04:07;15.40;99.90
23251;DHT22;11794;49.730;10.088;2023-08-06T06:06:32;15.40;99.90
23251;DHT22;11794;49.730;10.088;2023-08-06T06:08:58;15.40;99.90
23251;DHT22;11794;49.730;10.088;2023-08-06T06:11:23;15.60;99.90
23251;DHT22;11794;49.730;10.088;2023-08-06T06:13:52;15.70;99.90
23251;DHT22;11794;49.730;10.088;2023-08-06T06:16:17;15.70;99.90
23251;DHT22;11794;49.730;10.088;2023-08-06T06:18:43;15.80;99.90
23251;DHT22;11794;49.730;10.088;2023-08-06T06:21:09;15.80;99.90
23251;DHT22;11794;49.730;10.088;2023-08-06T06:23:35;15.80;99.90
23251;DHT22;11794;49.730;10.088;2023-08-06T06:26:00;15.60;99.90
23251;DHT22;11794;49.730;10.088;2023-08-06T06:28:26;15.50;99.90
23251;DHT22;11794;49.730;10.088;2023-08-06T06:30:52;15.40;99.90
23251;DHT22;11794;49.730;10.088;2023-08-06T06:33:17;15.40;99.90
23251;DHT22;11794;49.730;10.088;2023-08-06T06:35:43;15.40;99.90
23251;DHT22;11794;49.730;10.088;2023-08-06T06:38:08;15.50;99.90
23251;DHT22;11794;49.730;10.088;2023-08-06T06:40:34;15.50;99.90
23251;DHT22;11794;49.730;10.088;2023-08-06T06:42:59;15.40;99.90
23251;DHT22;11794;49.730;10.088;2023-08-06T06:45:25;15.30;99.90
23251;DHT22;11794;49.730;10.088;2023-08-06T06:47:50;15.30;99.90
23251;DHT22;11794;49.730;10.088;2023-08-06T06:50:16;15.20;99.90
23251;DHT22;11794;49.730;10.088;2023-08-06T06:52:41;15.10;99.90
23251;DHT22;11794;49.730;10.088;2023-08-06T06:55:07;15.10;99.90
23251;DHT22;11794;49.730;10.088;2023-08-06T06:57:33;14.90;99.90
23251;DHT22;11794;49.730;10.088;2023-08-06T06:59:58;14.80;99.90
23251;DHT22;11794;49.730;10.088;2023-08-06T07:02:24;14.80;99.90
23251;DHT22;11794;49.730;10.088;2023-08-06T07:04:50;14.80;99.90
23251;DHT22;11794;49.730;10.088;2023-08-06T07:07:15;14.90;99.90
23251;DHT22;11794;49.730;10.088;2023-08-06T07:09:41;14.80;99.90
23251;DHT22;11794;49.730;10.088;2023-08-06T07:12:09;14.90;99.90
23251;DHT22;11794;49.730;10.088;2023-08-06T07:14:34;14.90;99.90
23251;DHT22;11794;49.730;10.088;2023-08-06T07:17:00;14.90;99.90
23251;DHT22;11794;49.730;10.088;2023-08-06T07:19:25;15.00;99.90
23251;DHT22;11794;49.730;10.088;2023-08-06T07:21:51;15.00;99.90
23251;DHT22;11794;49.730;10.088;2023-08-06T07:24:17;15.00;99.90
23251;DHT22;11794;49.730;10.088;2023-08-06T07:26:42;15.00;99.90
23251;DHT22;11794;49.730;10.088;2023-08-06T07:29:08;15.00;99.90
23251;DHT22;11794;49.730;10.088;2023-08-06T07:31:33;14.90;99.90
23251;DHT22;11794;49.730;10.088;2023-08-06T07:33:59;14.90;99.90
23251;DHT22;11794;49.730;10.088;2023-08-06T07:36:24;14.80;99.90
23251;DHT22;11794;49.730;10.088;2023-08-06T07:38:50;14.90;99.90
23251;DHT22;11794;49.730;10.088;2023-08-06T07:41:21;15.00;99.90
23251;DHT22;11794;49.730;10.088;2023-08-06T07:43:47;15.00;99.90
23251;DHT22;11794;49.730;10.088;2023-08-06T07:46:12;15.00;99.90
23251;DHT22;11794;49.730;10.088;2023-08-06T07:48:38;15.20;99.90
23251;DHT22;11794;49.730;10.088;2023-08-06T07:51:04;15.60;99.90
23251;DHT22;11794;49.730;10.088;2023-08-06T07:53:30;15.80;99.90
23251;DHT22;11794;49.730;10.088;2023-08-06T07:55:56;16.00;99.90
23251;DHT22;11794;49.730;10.088;2023-08-06T07:58:22;16.00;99.90
23251;DHT22;11794;49.730;10.088;2023-08-06T08:00:48;15.80;99.90
23251;DHT22;11794;49.730;10.088;2023-08-06T08:03:14;15.80;99.90
23251;DHT22;11794;49.730;10.088;2023-08-06T08:05:41;15.90;99.90
23251;DHT22;11794;49.730;10.088;2023-08-06T08:08:07;15.90;99.90
23251;DHT22;11794;49.730;10.088;2023-08-06T08:10:33;15.90;99.90
23251;DHT22;11794;49.730;10.088;2023-08-06T08:13:03;15.90;99.90
23251;DHT22;11794;49.730;10.088;2023-08-06T08:15:30;15.90;99.90
23251;DHT22;11794;49.730;10.088;2023-08-06T08:17:55;15.80;99.90
23251;DHT22;11794;49.730;10.088;2023-08-06T08:20:21;15.70;99.90
23251;DHT22;11794;49.730;10.088;2023-08-06T08:22:47;15.70;99.90
23251;DHT22;11794;49.730;10.088;2023-08-06T08:43:32;15.50;99.90
23251;DHT22;11794;49.730;10.088;2023-08-06T08:45:58;15.90;99.90
23251;DHT22;11794;49.730;10.088;2023-08-06T08:48:25;16.00;99.90
23251;DHT22;11794;49.730;10.088;2023-08-06T08:50:52;16.00;99.90
23251;DHT22;11794;49.730;10.088;2023-08-06T08:53:18;16.10;99.90
23251;DHT22;11794;49.730;10.088;2023-08-06T08:55:48;16.20;99.90
23251;DHT22;11794;49.730;10.088;2023-08-06T08:58:14;16.30;99.90
23251;DHT22;11794;49.730;10.088;2023-08-06T09:00:43;16.40;99.90
23251;DHT22;11794;49.730;10.088;2023-08-06T09:03:10;16.50;99.90
23251;DHT22;11794;49.730;10.088;2023-08-06T09:05:37;16.70;99.90
23251;DHT22;11794;49.730;10.088;2023-08-06T09:08:04;16.80;99.90
23251;DHT22;11794;49.730;10.088;2023-08-06T09:10:30;16.80;99.90
23251;DHT22;11794;49.730;10.088;2023-08-06T09:12:57;16.80;99.90
23251;DHT22;11794;49.730;10.088;2023-08-06T09:15:26;16.90;99.90
23251;DHT22;11794;49.730;10.088;2023-08-06T09:17:53;17.00;99.90
23251;DHT22;11794;49.730;10.088;2023-08-06T09:20:19;17.00;99.90
23251;DHT22;11794;49.730;10.088;2023-08-06T09:22:45;16.90;99.90
23251;DHT22;11794;49.730;10.088;2023-08-06T09:25:11;17.00;99.90
23251;DHT22;11794;49.730;10.088;2023-08-06T09:27:38;17.20;99.90
23251;DHT22;11794;49.730;10.088;2023-08-06T09:30:05;17.20;99.90
23251;DHT22;11794;49.730;10.088;2023-08-06T09:33:01;17.00;99.90
23251;DHT22;11794;49.730;10.088;2023-08-06T09:35:31;16.80;99.90
23251;DHT22;11794;49.730;10.088;2023-08-06T09:38:10;16.40;99.90
23251;DHT22;11794;49.730;10.088;2023-08-06T09:40:36;16.10;99.90
23251;DHT22;11794;49.730;10.088;2023-08-06T09:43:03;16.00;99.90
23251;DHT22;11794;49.730;10.088;2023-08-06T09:45:34;16.00;99.90
23251;DHT22;11794;49.730;10.088;2023-08-06T09:48:04;16.00;99.90
23251;DHT22;11794;49.730;10.088;2023-08-06T09:50:32;16.30;99.90
23251;DHT22;11794;49.730;10.088;2023-08-06T09:52:59;17.00;99.90
23251;DHT22;11794;49.730;10.088;2023-08-06T09:55:25;17.40;99.90
23251;DHT22;11794;49.730;10.088;2023-08-06T09:57:54;17.80;99.90
23251;DHT22;11794;49.730;10.088;2023-08-06T10:00:20;17.90;99.90
23251;DHT22;11794;49.730;10.088;2023-08-06T10:02:46;17.80;99.90
23251;DHT22;11794;49.730;10.088;2023-08-06T10:05:13;17.60;99.90
23251;DHT22;11794;49.730;10.088;2023-08-06T10:07:39;17.50;99.90
23251;DHT22;11794;49.730;10.088;2023-08-06T10:10:05;17.00;99.90
23251;DHT22;11794;49.730;10.088;2023-08-06T10:12:37;17.30;99.90
23251;DHT22;11794;49.730;10.088;2023-08-06T10:15:08;17.80;99.90
23251;DHT22;11794;49.730;10.088;2023-08-06T10:17:35;19.10;99.90
23251;DHT22;11794;49.730;10.088;2023-08-06T10:20:07;20.20;99.90
23251;DHT22;11794;49.730;10.088;2023-08-06T10:22:34;20.20;99.90
23251;DHT22;11794;49.730;10.088;2023-08-06T10:25:01;20.00;99.90
23251;DHT22;11794;49.730;10.088;2023-08-06T10:28:13;19.40;99.90
23251;DHT22;11794;49.730;10.088;2023-08-06T10:32:54;18.50;99.90
23251;DHT22;11794;49.730;10.088;2023-08-06T10:38:15;18.10;99.90
23251;DHT22;11794;49.730;10.088;2023-08-06T10:43:26;18.20;99.90
23251;DHT22;11794;49.730;10.088;2023-08-06T10:45:52;18.30;99.90
23251;DHT22;11794;49.730;10.088;2023-08-06T10:50:56;18.00;99.90
23251;DHT22;11794;49.730;10.088;2023-08-06T10:53:22;18.20;99.90
23251;DHT22;11794;49.730;10.088;2023-08-06T10:55:48;18.40;99.90
23251;DHT22;11794;49.730;10.088;2023-08-06T10:58:15;18.40;99.90
23251;DHT22;11794;49.730;10.088;2023-08-06T11:00:42;18.20;99.90
23251;DHT22;11794;49.730;10.088;2023-08-06T11:03:08;18.40;99.90
23251;DHT22;11794;49.730;10.088;2023-08-06T11:05:35;18.50;99.90
23251;DHT22;11794;49.730;10.088;2023-08-06T11:08:01;18.90;99.90
23251;DHT22;11794;49.730;10.088;2023-08-06T11:10:26;18.80;99.90
23251;DHT22;11794;49.730;10.088;2023-08-06T11:12:52;19.40;99.90
23251;DHT22;11794;49.730;10.088;2023-08-06T11:15:20;20.50;99.90
23251;DHT22;11794;49.730;10.088;2023-08-06T11:17:46;21.60;99.90
23251;DHT22;11794;49.730;10.088;2023-08-06T11:20:12;21.00;99.90
23251;DHT22;11794;49.730;10.088;2023-08-06T11:22:37;20.50;99.90
23251;DHT22;11794;49.730;10.088;2023-08-06T11:25:04;20.50;99.90
23251;DHT22;11794;49.730;10.088;2023-08-06T11:27:30;20.20;99.90
23251;DHT22;11794;49.730;10.088;2023-08-06T11:29:56;20.00;99.90
23251;DHT22;11794;49.730;10.088;2023-08-06T11:32:21;20.10;99.90
23251;DHT22;11794;49.730;10.088;2023-08-06T11:34:47;20.40;99.90
23251;DHT22;11794;49.730;10.088;2023-08-06T11:37:12;21.20;99.90
23251;DHT22;11794;49.730;10.088;2023-08-06T11:39:38;21.50;99.90
23251;DHT22;11794;49.730;10.088;2023-08-06T11:42:08;21.00;99.90
23251;DHT22;11794;49.730;10.088;2023-08-06T11:44:36;20.60;99.90
23251;DHT22;11794;49.730;10.088;2023-08-06T11:47:03;20.50;99.90
23251;DHT22;11794;49.730;10.088;2023-08-06T11:49:49;20.80;99.90
23251;DHT22;11794;49.730;10.088;2023-08-06T11:52:19;20.20;99.90
23251;DHT22;11794;49.730;10.088;2023-08-06T11:55:06;19.60;99.90
23251;DHT22;11794;49.730;10.088;2023-08-06T11:57:33;20.20;99.90
23251;DHT22;11794;49.730;10.088;2023-08-06T12:00:10;21.20;99.90
23251;DHT22;11794;49.730;10.088;2023-08-06T12:02:38;21.60;99.90
23251;DHT22;11794;49.730;10.088;2023-08-06T12:05:53;21.20;99.90
23251;DHT22;11794;49.730;10.088;2023-08-06T12:07:58;20.90;99.90
23251;DHT22;11794;49.730;10.088;2023-08-06T12:10:25;20.60;99.90
23251;DHT22;11794;49.730;10.088;2023-08-06T12:12:51;20.30;99.90
23251;DHT22;11794;49.730;10.088;2023-08-06T12:15:17;19.70;99.90
23251;DHT22;11794;49.730;10.088;2023-08-06T12:17:42;19.40;99.90
23251;DHT22;11794;49.730;10.088;2023-08-06T12:20:09;18.90;99.90
23251;DHT22;11794;49.730;10.088;2023-08-06T12:22:35;18.20;99.90
23251;DHT22;11794;49.730;10.088;2023-08-06T12:25:02;17.80;99.90
23251;DHT22;11794;49.730;10.088;2023-08-06T12:27:36;17.50;99.90
23251;DHT22;11794;49.730;10.088;2023-08-06T12:30:02;17.40;99.90
23251;DHT22;11794;49.730;10.088;2023-08-06T12:32:29;17.10;99.90
23251;DHT22;11794;49.730;10.088;2023-08-06T12:34:54;16.80;99.90
23251;DHT22;11794;49.730;10.088;2023-08-06T12:37:20;16.70;99.90
23251;DHT22;11794;49.730;10.088;2023-08-06T12:39:46;16.70;99.90
23251;DHT22;11794;49.730;10.088;2023-08-06T12:42:11;16.70;99.90
23251;DHT22;11794;49.730;10.088;2023-08-06T12:44:37;16.60;99.90
23251;DHT22;11794;49.730;10.088;2023-08-06T12:47:02;16.50;99.90
23251;DHT22;11794;49.730;10.088;2023-08-06T12:49:28;16.50;99.90
23251;DHT22;11794;49.730;10.088;2023-08-06T12:51:55;16.40;99.90
23251;DHT22;11794;49.730;10.088;2023-08-06T12:54:22;16.40;99.90
23251;DHT22;11794;49.730;10.088;2023-08-06T12:56:48;16.40;99.90
23251;DHT22;11794;49.730;10.088;2023-08-06T12:59:15;16.60;99.90
23251;DHT22;11794;49.730;10.088;2023-08-06T13:01:41;16.70;99.90
23251;DHT22;11794;49.730;10.088;2023-08-06T13:04:07;17.00;99.90
23251;DHT22;11794;49.730;10.088;2023-08-06T13:06:33;17.10;99.90
23251;DHT22;11794;49.730;10.088;2023-08-06T13:09:06;17.10;99.90
23251;DHT22;11794;49.730;10.088;2023-08-06T13:11:32;16.80;99.90
23251;DHT22;11794;49.730;10.088;2023-08-06T13:14:05;16.60;99.90
23251;DHT22;11794;49.730;10.088;2023-08-06T13:16:32;16.50;99.90
23251;DHT22;11794;49.730;10.088;2023-08-06T13:18:57;16.50;99.90
23251;DHT22;11794;49.730;10.088;2023-08-06T13:21:23;16.60;99.90
23251;DHT22;11794;49.730;10.088;2023-08-06T13:23:49;16.50;99.90
23251;DHT22;11794;49.730;10.088;2023-08-06T13:26:14;16.40;99.90
23251;DHT22;11794;49.730;10.088;2023-08-06T13:28:41;16.40;99.90
23251;DHT22;11794;49.730;10.088;2023-08-06T13:31:07;16.40;99.90
23251;DHT22;11794;49.730;10.088;2023-08-06T13:33:33;16.00;99.90
23251;DHT22;11794;49.730;10.088;2023-08-06T13:35:58;15.80;99.90
23251;DHT22;11794;49.730;10.088;2023-08-06T13:38:24;15.70;99.90
23251;DHT22;11794;49.730;10.088;2023-08-06T13:40:49;15.60;99.90
23251;DHT22;11794;49.730;10.088;2023-08-06T13:43:15;15.50;99.90
23251;DHT22;11794;49.730;10.088;2023-08-06T13:45:42;15.50;99.90
23251;DHT22;11794;49.730;10.088;2023-08-06T13:48:07;15.50;99.90
23251;DHT22;11794;49.730;10.088;2023-08-06T13:50:34;15.50;99.90
23251;DHT22;11794;49.730;10.088;2023-08-06T13:52:59;15.50;99.90
23251;DHT22;11794;49.730;10.088;2023-08-06T13:55:25;15.50;99.90
23251;DHT22;11794;49.730;10.088;2023-08-06T13:57:51;15.40;99.90
23251;DHT22;11794;49.730;10.088;2023-08-06T14:00:17;15.40;99.90
23251;DHT22;11794;49.730;10.088;2023-08-06T14:02:43;15.40;99.90
23251;DHT22;11794;49.730;10.088;2023-08-06T14:05:09;15.40;99.90
23251;DHT22;11794;49.730;10.088;2023-08-06T14:07:35;15.50;99.90
23251;DHT22;11794;49.730;10.088;2023-08-06T14:10:01;15.50;99.90
23251;DHT22;11794;49.730;10.088;2023-08-06T14:12:26;15.60;99.90
23251;DHT22;11794;49.730;10.088;2023-08-06T14:14:52;15.70;99.90
23251;DHT22;11794;49.730;10.088;2023-08-06T14:17:17;15.80;99.90
23251;DHT22;11794;49.730;10.088;2023-08-06T14:19:43;15.90;99.90
23251;DHT22;11794;49.730;10.088;2023-08-06T14:22:08;15.80;99.90
23251;DHT22;11794;49.730;10.088;2023-08-06T14:24:34;15.90;99.90
23251;DHT22;11794;49.730;10.088;2023-08-06T14:27:00;16.00;99.90
23251;DHT22;11794;49.730;10.088;2023-08-06T14:29:25;16.00;99.90
23251;DHT22;11794;49.730;10.088;2023-08-06T14:31:51;16.00;99.90
23251;DHT22;11794;49.730;10.088;2023-08-06T14:34:17;16.00;99.90
23251;DHT22;11794;49.730;10.088;2023-08-06T14:36:42;15.90;99.90
23251;DHT22;11794;49.730;10.088;2023-08-06T14:39:08;15.90;99.90
23251;DHT22;11794;49.730;10.088;2023-08-06T14:41:33;16.00;99.90
23251;DHT22;11794;49.730;10.088;2023-08-06T14:43:59;16.10;99.90
23251;DHT22;11794;49.730;10.088;2023-08-06T14:46:25;16.00;99.90
23251;DHT22;11794;49.730;10.088;2023-08-06T14:48:50;16.00;99.90
23251;DHT22;11794;49.730;10.088;2023-08-06T14:51:16;16.00;99.90
23251;DHT22;11794;49.730;10.088;2023-08-06T14:53:44;16.00;99.90
23251;DHT22;11794;49.730;10.088;2023-08-06T14:56:09;15.80;99.90
23251;DHT22;11794;49.730;10.088;2023-08-06T14:58:35;15.70;99.90
23251;DHT22;11794;49.730;10.088;2023-08-06T15:01:00;15.60;99.90
23251;DHT22;11794;49.730;10.088;2023-08-06T15:03:26;15.70;99.90
23251;DHT22;11794;49.730;10.088;2023-08-06T15:05:53;15.90;99.90
23251;DHT22;11794;49.730;10.088;2023-08-06T15:08:19;16.40;99.90
23251;DHT22;11794;49.730;10.088;2023-08-06T15:10:50;16.60;99.90
23251;DHT22;11794;49.730;10.088;2023-08-06T15:13:17;16.90;99.90
23251;DHT22;11794;49.730;10.088;2023-08-06T15:15:42;16.90;99.90
23251;DHT22;11794;49.730;10.088;2023-08-06T15:18:10;16.90;99.90
23251;DHT22;11794;49.730;10.088;2023-08-06T15:20:36;16.90;99.90
23251;DHT22;11794;49.730;10.088;2023-08-06T15:23:02;17.20;99.90
23251;DHT22;11794;49.730;10.088;2023-08-06T15:25:27;17.20;99.90
23251;DHT22;11794;49.730;10.088;2023-08-06T15:27:53;17.00;99.90
23251;DHT22;11794;49.730;10.088;2023-08-06T15:30:19;16.80;99.90
23251;DHT22;11794;49.730;10.088;2023-08-06T15:32:46;16.60;99.90
23251;DHT22;11794;49.730;10.088;2023-08-06T15:35:12;16.50;99.90
23251;DHT22;11794;49.730;10.088;2023-08-06T15:37:38;16.50;99.90
23251;DHT22;11794;49.730;10.088;2023-08-06T15:40:05;16.40;99.90
23251;DHT22;11794;49.730;10.088;2023-08-06T15:42:30;16.40;99.90
23251;DHT22;11794;49.730;10.088;2023-08-06T15:44:56;16.40;99.90
23251;DHT22;11794;49.730;10.088;2023-08-06T15:47:22;16.40;99.90
23251;DHT22;11794;49.730;10.088;2023-08-06T15:49:47;16.40;99.90
23251;DHT22;11794;49.730;10.088;2023-08-06T15:52:13;16.30;99.90